createdAt,value
2017-08-26T00:01:12.466Z,101030.79
2017-08-26T00:03:40.078Z,101023.80
2017-08-26T00:06:07.687Z,101020.04
2017-08-26T00:08:35.314Z,101024.95
2017-08-26T00:11:02.899Z,101018.21
2017-08-26T00:13:30.590Z,101023.23
2017-08-26T00:15:58.222Z,101021.40
2017-08-26T00:18:25.858Z,101016.03
2017-08-26T00:20:53.443Z,101014.91
2017-08-26T00:23:21.410Z,101010.60
2017-08-26T00:25:49.006Z,101013.37
2017-08-26T00:28:16.593Z,101011.78
2017-08-26T00:30:44.242Z,101004.19
2017-08-26T00:33:11.852Z,100997.84
2017-08-26T00:35:39.500Z,100996.42
2017-08-26T00:38:07.143Z,101006.36
2017-08-26T00:40:34.807Z,100998.98
2017-08-26T00:43:08.230Z,101000.84
2017-08-26T00:45:35.999Z,101002.58
2017-08-26T00:48:03.595Z,100996.80
2017-08-26T00:50:31.212Z,101001.61
2017-08-26T00:52:58.846Z,100997.12
2017-08-26T00:55:26.447Z,100996.81
2017-08-26T00:57:54.087Z,100996.25
2017-08-26T01:00:21.672Z,100987.98
2017-08-26T01:02:49.318Z,100984.08
2017-08-26T01:05:16.914Z,100976.39
2017-08-26T01:07:44.717Z,100982.48
2017-08-26T01:10:12.318Z,100983.77
2017-08-26T01:12:40.179Z,100989.14
2017-08-26T01:15:07.759Z,100999.78
2017-08-26T01:17:35.427Z,100994.66
2017-08-26T01:20:03.098Z,100993.92
2017-08-26T01:22:30.703Z,100983.85
2017-08-26T01:24:58.388Z,100979.20
2017-08-26T01:27:26.014Z,100978.31
2017-08-26T01:29:53.662Z,100983.84
2017-08-26T01:32:21.307Z,100987.91
2017-08-26T01:34:48.958Z,100980.87
2017-08-26T01:37:16.549Z,100976.13
2017-08-26T01:39:44.280Z,100986.70
2017-08-26T01:42:11.907Z,100981.91
2017-08-26T01:44:39.507Z,100988.73
2017-08-26T01:47:07.140Z,100995.20
2017-08-26T01:49:34.728Z,100998.27
2017-08-26T01:52:02.375Z,100990.73
2017-08-26T01:54:30.162Z,100993.37
2017-08-26T01:56:57.970Z,101006.98
2017-08-26T01:59:25.576Z,101008.73
2017-08-26T02:01:53.162Z,101007.23
2017-08-26T02:04:20.903Z,101007.53
2017-08-26T02:06:48.543Z,100998.19
2017-08-26T02:09:16.173Z,101000.19
2017-08-26T02:11:43.765Z,101003.72
2017-08-26T02:14:11.394Z,101010.04
2017-08-26T02:16:39.025Z,101012.02
2017-08-26T02:19:06.778Z,101005.47
2017-08-26T02:21:34.383Z,101006.19
2017-08-26T02:24:02.134Z,101002.33
2017-08-26T02:26:29.739Z,101000.88
2017-08-26T02:28:57.400Z,100997.13
2017-08-26T02:31:25.058Z,100996.66
2017-08-26T02:33:52.644Z,100998.01
2017-08-26T02:36:20.292Z,101001.39
2017-08-26T02:38:47.893Z,100992.17
2017-08-26T02:41:15.545Z,100997.20
2017-08-26T02:43:43.142Z,100990.41
2017-08-26T02:46:10.828Z,100994.17
2017-08-26T02:48:38.538Z,100985.44
2017-08-26T02:51:06.481Z,100981.20
2017-08-26T02:53:34.101Z,100981.66
2017-08-26T02:56:01.700Z,100981.89
2017-08-26T02:58:29.336Z,100975.59
2017-08-26T03:00:56.936Z,100972.30
2017-08-26T03:03:24.584Z,100963.32
2017-08-26T03:05:52.191Z,100961.33
2017-08-26T03:08:19.939Z,100967.34
2017-08-26T03:10:47.535Z,100971.05
2017-08-26T03:13:15.123Z,100974.88
2017-08-26T03:15:42.755Z,100973.67
2017-08-26T03:18:10.379Z,100961.34
2017-08-26T03:20:38.029Z,100956.13
2017-08-26T03:23:05.622Z,100951.87
2017-08-26T03:25:33.380Z,100957.55
2017-08-26T03:28:00.982Z,100949.56
2017-08-26T03:30:28.695Z,100942.84
2017-08-26T03:32:56.306Z,100948.91
2017-08-26T03:35:24.347Z,100941.38
2017-08-26T03:37:51.939Z,100933.89
2017-08-26T03:40:19.547Z,100941.96
2017-08-26T03:42:47.194Z,100939.08
2017-08-26T03:45:14.798Z,100938.36
2017-08-26T03:47:42.486Z,100937.59
2017-08-26T03:50:10.097Z,100935.36
2017-08-26T03:52:37.734Z,100936.13
2017-08-26T03:55:05.330Z,100936.84
2017-08-26T03:57:32.971Z,100938.37
2017-08-26T04:00:00.619Z,100937.73
2017-08-26T04:02:28.264Z,100941.09
2017-08-26T04:04:55.934Z,100946.30
2017-08-26T04:07:23.562Z,100945.18
2017-08-26T04:09:51.166Z,100941.57
2017-08-26T04:12:18.756Z,100947.51
2017-08-26T04:14:46.527Z,100948.20
2017-08-26T04:17:14.126Z,100941.73
2017-08-26T04:19:41.796Z,100945.40
2017-08-26T04:22:09.402Z,100945.66
2017-08-26T04:24:37.046Z,100950.55
2017-08-26T04:27:04.661Z,100952.36
2017-08-26T04:29:32.314Z,100949.96
2017-08-26T04:31:59.946Z,100951.18
2017-08-26T04:34:27.673Z,100945.25
2017-08-26T04:36:55.279Z,100950.53
2017-08-26T04:39:22.914Z,100954.97
2017-08-26T04:41:50.518Z,100953.78
2017-08-26T04:44:18.160Z,100953.41
2017-08-26T04:46:45.783Z,100960.16
2017-08-26T04:49:13.530Z,100961.75
2017-08-26T04:51:41.256Z,100959.50
2017-08-26T04:54:08.883Z,100958.38
2017-08-26T04:56:36.510Z,100954.22
2017-08-26T04:59:04.115Z,100967.73
2017-08-26T05:01:31.727Z,100970.59
2017-08-26T05:03:59.311Z,100963.81
2017-08-26T05:06:27.031Z,100966.38
2017-08-26T05:08:54.666Z,100969.89
2017-08-26T05:11:22.346Z,100975.89
2017-08-26T05:13:49.926Z,100974.45
2017-08-26T05:16:17.718Z,100981.02
2017-08-26T05:18:45.422Z,100984.86
2017-08-26T05:21:13.038Z,100977.08
2017-08-26T05:23:40.854Z,100975.95
2017-08-26T05:26:08.451Z,100974.12
2017-08-26T05:28:36.045Z,100970.61
2017-08-26T05:31:03.798Z,100974.00
2017-08-26T05:33:31.435Z,100983.34
2017-08-26T05:35:59.071Z,100980.45
2017-08-26T05:38:26.710Z,100969.97
2017-08-26T05:40:54.307Z,100973.59
2017-08-26T05:43:21.932Z,100977.09
2017-08-26T05:45:49.542Z,100966.22
2017-08-26T05:48:17.492Z,100971.59
2017-08-26T05:50:45.082Z,100970.39
2017-08-26T05:53:12.671Z,100967.69
2017-08-26T05:55:40.374Z,100969.17
2017-08-26T05:58:07.974Z,100964.73
2017-08-26T06:00:35.607Z,100964.59
2017-08-26T06:03:03.362Z,100971.78
2017-08-26T06:05:30.993Z,100964.30
2017-08-26T06:07:58.589Z,100963.83
2017-08-26T06:10:26.223Z,100963.59
2017-08-26T06:12:53.839Z,100969.27
2017-08-26T06:15:21.576Z,100969.77
2017-08-26T06:17:49.167Z,100973.43
2017-08-26T06:20:16.759Z,100976.15
2017-08-26T06:22:44.426Z,100972.48
2017-08-26T06:25:12.027Z,100974.79
2017-08-26T06:27:39.665Z,100977.05
2017-08-26T06:30:07.258Z,100972.55
2017-08-26T06:32:34.886Z,100972.23
2017-08-26T06:35:02.483Z,100975.27
2017-08-26T06:37:30.114Z,100973.61
2017-08-26T06:39:57.735Z,100970.22
2017-08-26T06:42:25.851Z,100963.18
2017-08-26T06:44:53.467Z,100961.25
2017-08-26T06:47:21.071Z,100961.80
2017-08-26T06:49:48.706Z,100961.40
2017-08-26T06:52:16.366Z,100959.73
2017-08-26T06:54:43.990Z,100957.19
2017-08-26T06:57:11.576Z,100956.60
2017-08-26T06:59:39.230Z,100951.48
2017-08-26T07:02:06.821Z,100954.63
2017-08-26T07:04:34.541Z,100960.13
2017-08-26T07:07:02.139Z,100956.92
2017-08-26T07:09:29.930Z,100956.59
2017-08-26T07:11:57.538Z,100956.67
2017-08-26T07:14:25.371Z,100966.70
2017-08-26T07:16:53.286Z,100961.72
2017-08-26T07:19:20.922Z,100967.25
2017-08-26T07:21:48.662Z,100972.13
2017-08-26T07:24:16.315Z,100961.48
2017-08-26T07:26:43.946Z,100968.13
2017-08-26T07:29:11.591Z,100975.41
2017-08-26T07:31:39.195Z,100976.47
2017-08-26T07:34:07.242Z,100981.27
2017-08-26T07:36:34.878Z,100980.48
2017-08-26T07:39:02.507Z,100980.56
2017-08-26T07:41:30.254Z,100980.23
2017-08-26T07:43:58.000Z,100981.77
2017-08-26T07:46:25.626Z,100985.20
2017-08-26T07:48:53.288Z,100988.88
2017-08-26T07:51:20.883Z,100991.84
2017-08-26T07:53:48.491Z,100984.12
2017-08-26T07:56:16.110Z,100984.42
2017-08-26T07:58:43.727Z,100984.59
2017-08-26T08:01:11.369Z,100986.90
2017-08-26T08:03:38.999Z,100990.82
2017-08-26T08:06:06.628Z,100994.83
2017-08-26T08:08:34.248Z,100989.46
2017-08-26T08:11:01.866Z,100989.13
2017-08-26T08:13:29.465Z,100985.98
2017-08-26T08:15:57.090Z,100998.27
2017-08-26T08:18:24.701Z,100999.13
2017-08-26T08:20:52.339Z,100997.18
2017-08-26T08:23:19.942Z,100998.30
2017-08-26T08:25:47.599Z,100997.25
2017-08-26T08:28:15.230Z,100997.70
2017-08-26T08:30:42.839Z,100993.58
2017-08-26T08:33:10.466Z,100990.20
2017-08-26T08:35:38.074Z,100997.77
2017-08-26T08:38:05.711Z,100999.37
2017-08-26T08:40:33.338Z,100997.61
2017-08-26T08:43:00.971Z,100996.72
2017-08-26T08:45:28.580Z,101000.55
2017-08-26T08:47:56.216Z,101000.47
2017-08-26T08:50:23.968Z,101001.38
2017-08-26T08:52:51.594Z,101003.09
2017-08-26T08:55:19.217Z,101001.29
2017-08-26T08:57:46.871Z,101007.16
2017-08-26T09:00:14.471Z,101008.41
2017-08-26T09:02:42.134Z,101000.56
2017-08-26T09:05:09.833Z,101000.86
2017-08-26T09:07:37.470Z,101005.17
2017-08-26T09:10:05.219Z,101007.08
2017-08-26T09:12:32.896Z,101005.19
2017-08-26T09:15:00.524Z,101006.98
2017-08-26T09:17:28.158Z,101008.42
2017-08-26T09:19:55.761Z,101011.13
2017-08-26T09:22:23.429Z,101004.91
2017-08-26T09:24:51.031Z,101008.77
2017-08-26T09:27:18.694Z,101008.78
2017-08-26T09:29:46.427Z,101013.84
2017-08-26T09:32:14.026Z,101012.72
2017-08-26T09:34:41.874Z,101012.22
2017-08-26T09:37:09.458Z,101006.80
2017-08-26T09:39:37.093Z,101002.60
2017-08-26T09:42:04.699Z,101000.93
2017-08-26T09:44:32.350Z,101003.80
2017-08-26T09:46:59.954Z,101006.56
2017-08-26T09:49:27.606Z,101004.47
2017-08-26T09:51:55.203Z,101002.48
2017-08-26T09:54:23.319Z,101004.95
2017-08-26T09:56:50.914Z,101000.95
2017-08-26T09:59:18.539Z,101000.56
2017-08-26T10:01:46.145Z,101003.64
2017-08-26T10:04:13.783Z,100998.08
2017-08-26T10:06:41.367Z,101001.16
2017-08-26T10:09:09.201Z,101000.84
2017-08-26T10:11:36.799Z,101001.38
2017-08-26T10:14:04.427Z,100995.06
2017-08-26T10:16:32.113Z,100995.98
2017-08-26T10:18:59.754Z,100997.51
2017-08-26T10:21:27.361Z,101001.72
2017-08-26T10:23:55.023Z,100997.06
2017-08-26T10:26:22.638Z,101000.52
2017-08-26T10:28:50.279Z,100994.88
2017-08-26T10:31:17.946Z,100991.88
2017-08-26T10:33:45.539Z,100995.45
2017-08-26T10:36:13.149Z,100999.17
2017-08-26T10:38:42.531Z,100999.95
2017-08-26T10:41:10.127Z,100994.97
2017-08-26T10:43:37.754Z,100994.92
2017-08-26T10:46:05.355Z,101000.51
2017-08-26T10:48:33.124Z,100996.97
2017-08-26T10:51:00.735Z,100999.02
2017-08-26T10:53:28.354Z,100993.52
2017-08-26T10:55:56.090Z,100984.86
2017-08-26T10:58:23.748Z,100986.03
2017-08-26T11:00:51.350Z,100988.47
2017-08-26T11:03:18.963Z,100978.88
2017-08-26T11:05:46.598Z,100988.96
2017-08-26T11:08:14.230Z,100980.67
2017-08-26T11:10:41.871Z,100979.30
2017-08-26T11:13:09.474Z,100979.23
2017-08-26T11:15:37.111Z,100976.66
2017-08-26T11:18:04.712Z,100976.69
2017-08-26T11:20:32.344Z,100973.74
2017-08-26T11:22:59.971Z,100975.17
2017-08-26T11:25:27.618Z,100974.41
2017-08-26T11:27:55.211Z,100970.47
2017-08-26T11:30:22.860Z,100979.16
2017-08-26T11:32:50.459Z,100975.70
2017-08-26T11:35:18.153Z,100965.00
2017-08-26T11:37:45.753Z,100972.56
2017-08-26T11:40:13.386Z,100961.85
2017-08-26T11:42:40.996Z,100964.62
2017-08-26T11:45:08.670Z,100973.23
2017-08-26T11:47:36.269Z,100966.94
2017-08-26T11:50:03.938Z,100968.30
2017-08-26T11:52:31.576Z,100967.12
2017-08-26T11:54:59.355Z,100966.63
2017-08-26T11:57:26.970Z,100960.95
2017-08-26T11:59:54.594Z,100960.95
2017-08-26T12:02:22.196Z,100960.02
2017-08-26T12:04:49.852Z,100959.61
2017-08-26T12:07:17.464Z,100952.17
2017-08-26T12:09:45.215Z,100948.09
2017-08-26T12:12:12.902Z,100946.57
2017-08-26T12:14:40.562Z,100951.38
2017-08-26T12:17:08.217Z,100949.55
2017-08-26T12:19:35.818Z,100952.41
2017-08-26T12:22:03.465Z,100957.87
2017-08-26T12:24:31.090Z,100961.38
2017-08-26T12:26:58.767Z,100954.41
2017-08-26T12:29:26.366Z,100951.17
2017-08-26T12:31:54.010Z,100946.36
2017-08-26T12:34:21.638Z,100949.11
2017-08-26T12:36:49.287Z,100955.36
2017-08-26T12:39:16.906Z,100961.78
2017-08-26T12:41:44.552Z,100958.87
2017-08-26T12:44:12.153Z,100955.83
2017-08-26T12:46:39.900Z,100958.98
2017-08-26T12:49:07.510Z,100964.42
2017-08-26T12:51:35.142Z,100969.41
2017-08-26T12:54:02.766Z,100962.27
2017-08-26T12:56:30.401Z,100977.74
2017-08-26T12:58:58.030Z,100965.53
2017-08-26T13:01:25.654Z,100967.36
2017-08-26T13:03:53.275Z,100964.46
2017-08-26T13:06:20.907Z,100965.61
2017-08-26T13:08:48.516Z,100967.92
2017-08-26T13:11:16.167Z,100966.47
2017-08-26T13:13:43.758Z,100965.31
2017-08-26T13:16:11.393Z,100968.70
2017-08-26T13:18:38.987Z,100960.73
2017-08-26T13:21:06.645Z,100966.25
2017-08-26T13:23:34.238Z,100966.51
2017-08-26T13:26:01.903Z,100964.75
2017-08-26T13:28:29.500Z,100963.89
2017-08-26T13:30:57.198Z,100957.03
2017-08-26T13:33:24.807Z,100953.80
2017-08-26T13:35:52.485Z,100960.22
2017-08-26T13:38:20.099Z,100960.36
2017-08-26T13:40:47.738Z,100952.69
2017-08-26T13:43:15.345Z,100957.55
2017-08-26T13:45:43.238Z,100963.31
2017-08-26T13:48:10.888Z,100964.74
2017-08-26T13:50:38.484Z,100962.78
2017-08-26T13:53:06.126Z,100966.05
2017-08-26T13:55:33.726Z,100968.80
2017-08-26T13:58:01.359Z,100963.92
2017-08-26T14:00:28.953Z,100969.37
2017-08-26T14:02:56.592Z,100966.99
2017-08-26T14:05:24.191Z,100966.13
2017-08-26T14:07:51.867Z,100963.30
2017-08-26T14:10:19.491Z,100963.34
2017-08-26T14:12:47.162Z,100966.84
2017-08-26T14:15:14.776Z,100965.65
2017-08-26T14:17:42.583Z,100959.51
2017-08-26T14:20:10.182Z,100968.22
2017-08-26T14:22:37.823Z,100973.16
2017-08-26T14:25:05.434Z,100969.52
2017-08-26T14:27:33.056Z,100973.54
2017-08-26T14:30:00.664Z,100972.31
2017-08-26T14:32:28.311Z,100969.93
2017-08-26T14:34:55.930Z,100969.37
2017-08-26T14:37:23.626Z,100962.78
2017-08-26T14:39:51.237Z,100965.39
2017-08-26T14:42:19.099Z,100960.36
2017-08-26T14:44:46.686Z,100959.13
2017-08-26T14:47:14.310Z,100960.30
2017-08-26T14:49:41.922Z,100957.99
2017-08-26T14:52:09.556Z,100953.85
2017-08-26T14:54:37.168Z,100958.21
2017-08-26T14:57:04.822Z,100953.80
2017-08-26T14:59:32.450Z,100948.38
2017-08-26T15:02:00.088Z,100952.19
2017-08-26T15:04:27.698Z,100947.12
2017-08-26T15:06:55.344Z,100947.66
2017-08-26T15:09:23.005Z,100944.99
2017-08-26T15:11:50.618Z,100945.13
2017-08-26T15:14:18.243Z,100951.07
2017-08-26T15:16:45.863Z,100960.02
2017-08-26T15:19:13.486Z,100954.47
2017-08-26T15:21:41.087Z,100953.30
2017-08-26T15:24:08.746Z,100949.76
2017-08-26T15:26:36.342Z,100951.73
2017-08-26T15:29:03.983Z,100952.66
2017-08-26T15:31:31.641Z,100954.52
2017-08-26T15:33:59.264Z,100948.45
2017-08-26T15:36:27.040Z,100952.63
2017-08-26T15:38:54.666Z,100949.88
2017-08-26T15:41:22.274Z,100951.33
2017-08-26T15:43:49.907Z,100957.53
2017-08-26T15:46:17.491Z,100951.58
2017-08-26T15:48:45.194Z,100953.55
2017-08-26T15:51:12.818Z,100948.55
2017-08-26T15:53:40.450Z,100954.12
2017-08-26T15:56:08.043Z,100960.34
2017-08-26T15:58:35.637Z,100959.50
2017-08-26T16:01:03.271Z,100962.07
2017-08-26T16:03:30.857Z,100957.03
2017-08-26T16:05:58.475Z,100955.75
2017-08-26T16:08:26.083Z,100956.13
2017-08-26T16:10:53.713Z,100953.45
2017-08-26T16:13:21.304Z,100950.23
2017-08-26T16:15:48.927Z,100953.21
2017-08-26T16:18:16.531Z,100945.11
2017-08-26T16:20:44.186Z,100948.23
2017-08-26T16:23:11.838Z,100953.73
2017-08-26T16:25:39.597Z,100952.56
2017-08-26T16:28:07.199Z,100954.98
2017-08-26T16:30:34.911Z,100959.61
2017-08-26T16:33:02.511Z,100957.76
2017-08-26T16:35:30.164Z,100957.69
2017-08-26T16:37:57.770Z,100964.89
2017-08-26T16:40:25.402Z,100964.19
2017-08-26T16:42:52.999Z,100969.37
2017-08-26T16:45:20.614Z,100966.58
2017-08-26T16:47:48.359Z,100971.48
2017-08-26T16:50:16.035Z,100967.91
2017-08-26T16:52:43.638Z,100972.25
2017-08-26T16:55:11.262Z,100971.50
2017-08-26T16:57:39.018Z,100971.42
2017-08-26T17:00:06.682Z,100969.45
2017-08-26T17:02:34.318Z,100968.89
2017-08-26T17:05:01.933Z,100966.75
2017-08-26T17:07:29.560Z,100970.41
2017-08-26T17:09:57.163Z,100970.78
2017-08-26T17:12:24.806Z,100967.94
2017-08-26T17:14:52.460Z,100977.14
2017-08-26T17:17:20.049Z,100971.38
2017-08-26T17:19:47.680Z,100975.45
2017-08-26T17:22:15.278Z,100974.39
2017-08-26T17:24:42.914Z,100969.17
2017-08-26T17:27:10.578Z,100970.69
2017-08-26T17:29:38.198Z,100969.95
2017-08-26T17:32:05.799Z,100970.41
2017-08-26T17:34:33.506Z,100974.35
2017-08-26T17:37:01.105Z,100974.45
2017-08-26T17:39:28.743Z,100971.20
2017-08-26T17:41:56.514Z,100986.00
2017-08-26T17:44:24.175Z,100984.52
2017-08-26T17:46:51.770Z,100984.03
2017-08-26T17:49:19.414Z,100987.16
2017-08-26T17:51:47.010Z,100987.13
2017-08-26T17:54:14.630Z,100991.58
2017-08-26T17:56:42.240Z,100992.98
2017-08-26T17:59:09.870Z,100995.19
2017-08-26T18:01:37.472Z,100992.66
2017-08-26T18:04:05.119Z,100996.20
2017-08-26T18:06:32.715Z,100999.91
2017-08-26T18:09:00.319Z,100990.91
2017-08-26T18:11:27.966Z,100999.91
2017-08-26T18:13:55.623Z,100995.82
2017-08-26T18:16:23.342Z,101001.36
2017-08-26T18:18:50.961Z,101000.59
2017-08-26T18:21:18.596Z,100994.09
2017-08-26T18:23:46.192Z,101002.02
2017-08-26T18:26:13.847Z,100999.45
2017-08-26T18:28:41.475Z,101009.76
2017-08-26T18:31:09.087Z,101006.23
2017-08-26T18:33:36.714Z,101019.23
2017-08-26T18:36:04.376Z,101018.88
2017-08-26T18:38:31.978Z,101020.30
2017-08-26T18:40:59.623Z,101016.73
2017-08-26T18:43:27.259Z,101020.37
2017-08-26T21:40:05.544Z,101094.41
2017-08-26T21:42:33.142Z,101090.66
2017-08-26T21:45:00.930Z,101102.86
2017-08-26T21:47:29.256Z,101105.11
2017-08-26T21:49:57.118Z,101110.77
2017-08-26T21:52:25.083Z,101113.95
2017-08-26T21:54:52.951Z,101111.75
2017-08-26T21:57:20.921Z,101113.36
2017-08-26T21:59:49.095Z,101111.32
2017-08-26T22:02:17.167Z,101119.34
2017-08-26T22:04:45.133Z,101122.09
2017-08-26T22:07:12.859Z,101123.05
2017-08-26T22:09:40.482Z,101124.16
2017-08-26T22:12:08.132Z,101127.38
2017-08-26T22:14:35.755Z,101123.38
2017-08-26T22:17:03.399Z,101125.00
2017-08-26T22:19:31.020Z,101119.19
2017-08-26T22:21:58.668Z,101113.14
2017-08-26T22:24:26.267Z,101106.72
2017-08-26T22:26:53.886Z,101111.23
2017-08-26T22:29:21.480Z,101111.73
2017-08-26T22:31:49.125Z,101113.39
2017-08-26T22:34:16.731Z,101115.44
2017-08-26T22:36:44.408Z,101109.70
2017-08-26T22:39:12.003Z,101110.24
2017-08-26T22:41:39.659Z,101103.58
2017-08-26T22:44:07.271Z,101109.13
2017-08-26T22:46:34.901Z,101118.48
2017-08-26T22:49:02.554Z,101117.81
2017-08-26T22:51:30.205Z,101118.32
2017-08-26T22:53:57.961Z,101116.88
2017-08-26T22:56:25.565Z,101121.63
2017-08-26T22:58:53.362Z,101119.19
2017-08-26T23:01:20.989Z,101123.69
2017-08-26T23:03:48.631Z,101121.95
2017-08-26T23:06:16.259Z,101130.23
2017-08-26T23:08:43.878Z,101125.41
2017-08-26T23:11:11.514Z,101123.59
2017-08-26T23:13:39.118Z,101124.50
2017-08-26T23:16:06.743Z,101121.69
2017-08-26T23:18:34.343Z,101124.20
2017-08-26T23:21:02.006Z,101125.52
2017-08-26T23:23:29.649Z,101125.00
2017-08-26T23:25:57.310Z,101123.75
2017-08-26T23:28:24.921Z,101133.30
2017-08-26T23:30:52.538Z,101134.41
2017-08-26T23:33:20.278Z,101134.17
2017-08-26T23:35:47.908Z,101129.20
2017-08-26T23:38:15.528Z,101135.28
2017-08-26T23:40:43.158Z,101140.44
2017-08-26T23:43:10.761Z,101135.63
2017-08-26T23:45:38.406Z,101135.00
2017-08-26T23:48:06.027Z,101135.39
2017-08-26T23:50:33.730Z,101136.61
2017-08-26T23:53:01.507Z,101130.73
2017-08-26T23:55:29.138Z,101130.98
2017-08-26T23:57:56.751Z,101137.72
